createdAt,value
2022-11-12T00:02:45.175Z,14.52
2022-11-12T00:05:34.878Z,16.83
2022-11-12T00:08:23.000Z,17.33
2022-11-12T00:11:10.716Z,18.17
2022-11-12T00:13:58.385Z,15.40
2022-11-12T00:16:45.885Z,16.30
2022-11-12T00:19:33.413Z,17.40
2022-11-12T00:22:22.148Z,20.25
2022-11-12T00:25:10.000Z,15.43
2022-11-12T00:28:02.326Z,19.67
2022-11-12T00:33:40.796Z,17.17
2022-11-12T00:36:28.483Z,20.58
2022-11-12T00:39:17.439Z,19.40
2022-11-12T00:42:05.453Z,17.60
2022-11-12T00:44:53.006Z,13.88
2022-11-12T00:47:40.952Z,18.45
2022-11-12T00:50:28.223Z,18.55
2022-11-12T00:53:16.116Z,18.58
2022-11-12T00:56:06.281Z,19.77
2022-11-12T00:58:54.295Z,20.40
2022-11-12T01:01:42.395Z,22.75
2022-11-12T01:04:30.091Z,16.95
2022-11-12T01:07:17.495Z,20.73
2022-11-12T01:10:05.442Z,18.25
2022-11-12T01:12:54.072Z,16.48
2022-11-12T01:15:42.892Z,18.27
2022-11-12T01:18:30.624Z,18.90
2022-11-12T01:21:18.119Z,21.65
2022-11-12T01:24:06.399Z,20.45
2022-11-12T01:26:53.919Z,19.45
2022-11-12T01:29:43.080Z,25.95
2022-11-12T01:32:30.931Z,24.65
2022-11-12T01:35:18.606Z,24.58
2022-11-12T01:38:05.803Z,22.80
2022-11-12T01:40:53.375Z,22.98
2022-11-12T01:43:40.829Z,23.27
2022-11-12T01:46:31.007Z,25.20
2022-11-12T01:49:20.940Z,22.10
2022-11-12T01:52:15.143Z,31.35
2022-11-12T01:55:04.687Z,22.15
2022-11-12T01:57:54.641Z,24.77
2022-11-12T02:00:42.583Z,20.98
2022-11-12T02:03:32.281Z,20.73
2022-11-12T02:06:21.424Z,21.38
2022-11-12T02:09:09.162Z,18.02
2022-11-12T02:11:57.121Z,19.65
2022-11-12T02:14:43.848Z,23.13
2022-11-12T02:17:31.825Z,17.27
2022-11-12T02:20:24.074Z,16.30
2022-11-12T02:23:13.026Z,18.63
2022-11-12T02:26:01.068Z,16.48
2022-11-12T02:28:48.539Z,16.73
2022-11-12T02:31:36.213Z,19.90
2022-11-12T02:34:23.701Z,15.13
2022-11-12T02:37:11.502Z,15.57
2022-11-12T02:40:00.451Z,19.05
2022-11-12T02:42:48.490Z,18.45
2022-11-12T02:45:36.120Z,16.17
2022-11-12T02:48:23.460Z,14.93
2022-11-12T02:51:11.235Z,14.57
2022-11-12T02:53:59.277Z,16.75
2022-11-12T02:56:48.286Z,19.13
2022-11-12T02:59:36.114Z,15.30
2022-11-12T03:02:24.298Z,13.75
2022-11-12T03:05:12.110Z,17.48
2022-11-12T03:08:00.031Z,13.55
2022-11-12T03:10:47.703Z,15.23
2022-11-12T03:13:37.025Z,15.88
2022-11-12T03:16:24.680Z,13.95
2022-11-12T03:19:12.389Z,15.05
2022-11-12T03:22:00.034Z,13.13
2022-11-12T03:24:47.689Z,13.30
2022-11-12T03:27:35.499Z,17.42
2022-11-12T03:30:24.338Z,17.23
2022-11-12T03:33:12.923Z,14.18
2022-11-12T03:36:00.503Z,14.98
2022-11-12T03:38:47.973Z,15.48
2022-11-12T03:41:35.586Z,17.42
2022-11-12T03:44:23.847Z,17.00
2022-11-12T03:47:12.855Z,14.07
2022-11-12T03:50:00.641Z,18.15
2022-11-12T03:52:48.976Z,20.02
2022-11-12T03:55:36.674Z,18.08
2022-11-12T03:58:24.778Z,21.35
2022-11-12T04:01:12.646Z,21.83
2022-11-12T04:04:01.674Z,20.50
2022-11-12T04:07:06.873Z,18.55
2022-11-12T04:09:54.550Z,19.00
2022-11-12T04:12:59.723Z,17.23
2022-11-12T04:16:08.137Z,22.50
2022-11-12T04:19:14.471Z,19.27
2022-11-12T04:22:05.047Z,22.05
2022-11-12T04:25:10.532Z,24.40
2022-11-12T04:27:58.220Z,20.10
2022-11-12T04:30:44.754Z,22.50
2022-11-12T04:33:32.485Z,20.83
2022-11-12T04:36:20.586Z,16.75
2022-11-12T04:39:10.097Z,18.73
2022-11-12T04:42:15.529Z,17.08
2022-11-12T04:45:04.195Z,17.13
2022-11-12T04:47:51.897Z,28.42
2022-11-12T04:50:40.018Z,21.20
2022-11-12T04:53:27.779Z,20.23
2022-11-12T04:56:16.834Z,20.50
2022-11-12T04:59:04.310Z,18.48
2022-11-12T05:01:51.884Z,23.00
2022-11-12T05:04:39.780Z,21.58
2022-11-12T05:07:27.252Z,22.00
2022-11-12T05:10:14.977Z,20.80
2022-11-12T05:13:03.756Z,21.30
2022-11-12T05:15:51.200Z,22.70
2022-11-12T05:18:39.076Z,21.05
2022-11-12T05:21:44.812Z,22.05
2022-11-12T05:24:41.910Z,23.33
2022-11-12T05:27:30.422Z,21.27
2022-11-12T05:30:19.503Z,22.90
2022-11-12T05:33:07.356Z,22.73
2022-11-12T05:35:57.641Z,22.75
2022-11-12T05:38:45.636Z,38.90
2022-11-12T05:41:51.363Z,16.83
2022-11-12T05:44:40.630Z,19.42
2022-11-12T05:47:29.679Z,20.85
2022-11-12T05:50:17.532Z,22.77
2022-11-12T05:53:05.383Z,21.83
2022-11-12T05:55:53.180Z,19.80
2022-11-12T05:58:41.009Z,19.65
2022-11-12T06:01:29.021Z,22.98
2022-11-12T06:04:18.573Z,19.33
2022-11-12T06:07:06.332Z,18.77
2022-11-12T06:09:53.692Z,18.98
2022-11-12T06:12:41.203Z,23.60
2022-11-12T06:15:28.905Z,18.15
2022-11-12T06:18:16.470Z,16.10
2022-11-12T06:21:22.440Z,19.90
2022-11-12T06:24:10.045Z,18.23
2022-11-12T06:26:57.824Z,18.08
2022-11-12T06:29:45.675Z,18.73
2022-11-12T06:32:33.135Z,20.60
2022-11-12T06:35:21.592Z,17.15
2022-11-12T06:38:10.908Z,20.30
2022-11-12T06:40:58.359Z,16.27
2022-11-12T06:43:45.955Z,16.77
2022-11-12T06:46:33.890Z,20.20
2022-11-12T06:49:21.793Z,15.82
2022-11-12T06:52:12.317Z,17.48
2022-11-12T06:55:05.653Z,17.05
2022-11-12T06:57:53.801Z,17.35
2022-11-12T07:00:41.154Z,15.52
2022-11-12T07:03:29.323Z,16.15
2022-11-12T07:06:20.903Z,14.98
2022-11-12T07:09:08.898Z,18.50
2022-11-12T07:11:57.745Z,21.13
2022-11-12T07:14:45.490Z,18.25
2022-11-12T07:17:33.365Z,17.38
2022-11-12T07:20:21.282Z,18.70
2022-11-12T07:23:09.219Z,17.77
2022-11-12T07:26:00.489Z,17.40
2022-11-12T07:28:50.249Z,17.63
2022-11-12T07:31:37.845Z,19.38
2022-11-12T07:34:25.352Z,20.35
2022-11-12T07:37:13.006Z,21.17
2022-11-12T07:40:01.165Z,21.33
2022-11-12T07:42:48.610Z,21.38
2022-11-12T07:45:37.648Z,17.02
2022-11-12T07:48:25.322Z,15.88
2022-11-12T07:51:14.147Z,22.98
2022-11-12T07:54:02.186Z,20.35
2022-11-12T07:56:50.006Z,24.50
2022-11-12T07:59:41.795Z,19.95
2022-11-12T08:02:36.933Z,20.75
2022-11-12T08:05:25.179Z,20.55
2022-11-12T08:08:13.684Z,20.27
2022-11-12T08:11:01.662Z,20.70
2022-11-12T08:13:49.593Z,22.17
2022-11-12T08:16:37.033Z,20.58
2022-11-12T08:19:26.459Z,17.00
2022-11-12T08:22:13.982Z,16.85
2022-11-12T08:25:01.680Z,18.25
2022-11-12T08:27:49.489Z,18.42
2022-11-12T08:30:37.759Z,17.98
2022-11-12T08:33:26.217Z,16.75
2022-11-12T08:36:15.990Z,16.65
2022-11-12T08:39:03.840Z,15.55
2022-11-12T08:41:51.206Z,16.25
2022-11-12T08:44:38.612Z,16.30
2022-11-12T08:47:26.171Z,21.10
2022-11-12T08:50:13.819Z,16.63
2022-11-12T08:53:03.557Z,16.90
2022-11-12T08:55:55.173Z,17.02
2022-11-12T08:58:45.379Z,17.15
2022-11-12T09:01:34.249Z,16.55
2022-11-12T09:04:22.298Z,15.15
2022-11-12T09:07:28.591Z,15.60
2022-11-12T09:10:19.698Z,14.50
2022-11-12T09:13:07.611Z,18.63
2022-11-12T09:15:55.519Z,18.33
2022-11-12T09:18:45.090Z,17.30
2022-11-12T09:21:32.386Z,18.17
2022-11-12T09:24:19.837Z,16.92
2022-11-12T09:27:08.829Z,19.85
2022-11-12T09:29:56.502Z,13.88
2022-11-12T09:32:43.936Z,17.88
2022-11-12T09:35:31.548Z,16.33
2022-11-12T09:38:19.612Z,14.88
2022-11-12T09:41:14.447Z,16.27
2022-11-12T09:44:04.274Z,17.42
2022-11-12T09:46:55.743Z,17.60
2022-11-12T09:49:48.135Z,15.00
2022-11-12T09:55:26.028Z,15.65
2022-11-12T09:58:14.792Z,16.27
2022-11-12T10:01:05.623Z,17.13
2022-11-12T10:03:58.905Z,13.30
2022-11-12T10:06:50.002Z,13.18
2022-11-12T10:09:55.211Z,13.70
2022-11-12T10:12:48.338Z,13.32
2022-11-12T10:16:06.852Z,13.07
2022-11-12T10:19:05.084Z,14.40
2022-11-12T10:21:55.415Z,12.02
2022-11-12T10:24:43.921Z,13.32
2022-11-12T10:27:43.464Z,13.05
2022-11-12T10:30:35.558Z,13.60
2022-11-12T10:36:18.940Z,13.65
2022-11-12T10:39:06.634Z,15.30
2022-11-12T10:42:03.810Z,12.43
2022-11-12T10:44:52.689Z,12.45
2022-11-12T10:47:43.125Z,12.02
2022-11-12T10:50:33.507Z,12.60
2022-11-12T10:53:33.698Z,11.52
2022-11-12T10:56:26.648Z,13.75
2022-11-12T10:59:17.938Z,13.73
2022-11-12T11:02:05.716Z,11.52
2022-11-12T11:04:53.433Z,11.43
2022-11-12T11:07:41.502Z,11.93
2022-11-12T11:10:31.748Z,10.88
2022-11-12T11:13:21.236Z,10.85
2022-11-12T11:16:12.419Z,10.95
2022-11-12T11:19:01.438Z,10.98
2022-11-12T11:21:59.370Z,11.90
2022-11-12T11:24:51.547Z,9.52
2022-11-12T11:27:43.598Z,11.73
2022-11-12T11:30:31.464Z,11.82
2022-11-12T11:33:26.393Z,10.90
2022-11-12T11:36:19.193Z,9.10
2022-11-12T11:39:16.392Z,12.63
2022-11-12T11:42:12.570Z,12.93
2022-11-12T11:45:04.792Z,10.50
2022-11-12T11:50:54.310Z,13.23
2022-11-12T11:53:49.117Z,10.75
2022-11-12T11:56:38.869Z,12.73
2022-11-12T11:59:32.822Z,14.30
2022-11-12T12:02:27.113Z,11.70
2022-11-12T12:05:22.934Z,13.05
2022-11-12T12:08:11.716Z,11.80
2022-11-12T12:11:08.763Z,12.43
2022-11-12T12:14:06.442Z,13.88
2022-11-12T12:16:58.599Z,11.07
2022-11-12T12:19:56.681Z,10.38
2022-11-12T12:22:46.921Z,12.43
2022-11-12T12:25:36.675Z,10.90
2022-11-12T12:28:28.684Z,11.73
2022-11-12T12:34:05.241Z,8.50
2022-11-12T12:36:56.372Z,9.50
2022-11-12T12:39:48.137Z,11.52
2022-11-12T12:42:39.507Z,12.43
2022-11-12T12:45:35.703Z,10.10
2022-11-12T12:48:26.220Z,11.32
2022-11-12T12:51:14.336Z,10.27
2022-11-12T12:54:03.312Z,8.25
2022-11-12T12:56:51.259Z,11.27
2022-11-12T12:59:41.760Z,14.65
2022-11-12T13:02:29.650Z,8.00
2022-11-12T13:05:26.925Z,9.57
2022-11-12T13:08:16.131Z,7.63
2022-11-12T13:11:05.167Z,9.93
2022-11-12T13:13:52.588Z,9.05
2022-11-12T13:16:59.938Z,10.63
2022-11-12T13:19:48.610Z,8.65
2022-11-12T13:22:50.060Z,7.75
2022-11-12T13:25:37.658Z,12.23
2022-11-12T13:28:26.661Z,8.30
2022-11-12T13:31:28.611Z,8.30
2022-11-12T13:34:20.638Z,11.47
2022-11-12T13:37:17.667Z,12.80
2022-11-12T13:40:05.473Z,11.18
2022-11-12T13:42:53.568Z,11.27
2022-11-12T13:45:44.235Z,9.85
2022-11-12T13:48:32.728Z,9.85
2022-11-12T13:51:21.880Z,8.65
2022-11-12T13:54:24.403Z,7.47
2022-11-12T13:57:15.843Z,9.35
2022-11-12T14:00:10.747Z,9.40
2022-11-12T14:03:00.573Z,8.70
2022-11-12T14:05:49.465Z,10.50
2022-11-12T14:08:58.114Z,10.70
2022-11-12T14:11:50.463Z,7.10
2022-11-12T14:14:45.121Z,9.88
2022-11-12T14:17:36.678Z,8.27
2022-11-12T14:20:30.543Z,9.63
2022-11-12T14:23:24.441Z,7.60
2022-11-12T14:26:14.071Z,7.95
2022-11-12T14:29:02.074Z,9.80
2022-11-12T14:31:58.871Z,7.32
2022-11-12T14:34:46.386Z,9.80
2022-11-12T14:37:42.641Z,10.77
2022-11-12T14:40:32.023Z,9.30
2022-11-12T14:43:28.059Z,9.25
2022-11-12T14:46:25.235Z,8.60
2022-11-12T14:49:17.073Z,10.55
2022-11-12T14:52:06.656Z,15.68
2022-11-12T14:54:56.416Z,8.38
2022-11-12T14:57:44.032Z,8.30
2022-11-12T15:00:39.571Z,10.68
2022-11-12T15:03:33.031Z,9.93
2022-11-12T15:06:22.463Z,11.27
2022-11-12T15:09:09.879Z,13.00
2022-11-12T15:11:59.076Z,12.88
2022-11-12T15:14:46.827Z,9.55
2022-11-12T15:17:35.705Z,12.38
2022-11-12T15:20:23.745Z,12.75
2022-11-12T15:23:17.876Z,11.73
2022-11-12T15:26:27.701Z,11.02
2022-11-12T15:29:17.605Z,12.05
2022-11-12T15:32:25.500Z,12.70
2022-11-12T15:35:23.255Z,12.07
2022-11-12T15:38:14.568Z,14.00
2022-11-12T15:41:01.964Z,12.63
2022-11-12T15:43:51.232Z,13.75
2022-11-12T15:46:40.987Z,11.25
2022-11-12T15:49:29.372Z,13.48
2022-11-12T15:52:17.274Z,13.63
2022-11-12T15:55:05.016Z,15.88
2022-11-12T15:57:53.047Z,11.95
2022-11-12T16:00:41.287Z,14.52
2022-11-12T16:03:31.954Z,12.13
2022-11-12T16:06:19.549Z,14.10
2022-11-12T16:09:09.935Z,15.50
2022-11-12T16:11:59.065Z,19.90
2022-11-12T16:14:46.853Z,18.30
2022-11-12T16:17:35.304Z,16.92
2022-11-12T16:20:25.371Z,18.42
2022-11-12T16:23:15.956Z,19.40
2022-11-12T16:26:04.320Z,18.33
2022-11-12T16:28:52.086Z,18.58
2022-11-12T16:31:39.870Z,21.75
2022-11-12T16:34:28.967Z,21.45
2022-11-12T16:37:17.849Z,20.73
2022-11-12T16:40:06.126Z,19.77
2022-11-12T16:42:53.794Z,20.63
2022-11-12T16:45:42.097Z,23.63
2022-11-12T16:48:29.926Z,25.08
2022-11-12T16:51:18.761Z,25.80
2022-11-12T16:54:08.099Z,23.70
2022-11-12T16:56:56.674Z,25.02
2022-11-12T16:59:45.014Z,21.30
2022-11-12T17:02:33.184Z,23.92
2022-11-12T17:05:22.615Z,21.70
2022-11-12T17:08:11.081Z,18.20
2022-11-12T17:11:07.269Z,22.77
2022-11-12T17:13:55.008Z,29.75
2022-11-12T17:16:44.942Z,21.38
2022-11-12T17:19:32.661Z,22.95
2022-11-12T17:22:20.512Z,23.08
2022-11-12T17:25:09.445Z,20.38
2022-11-12T17:27:58.156Z,24.30
2022-11-12T17:30:46.076Z,24.15
2022-11-12T17:33:33.708Z,27.60
2022-11-12T17:36:22.638Z,49.75
2022-11-12T17:39:15.208Z,26.80
2022-11-12T17:42:03.485Z,26.08
2022-11-12T17:44:56.495Z,28.80
2022-11-12T17:47:46.269Z,26.55
2022-11-12T17:50:37.945Z,26.95
2022-11-12T17:53:29.331Z,26.33
2022-11-12T17:56:19.376Z,28.37
2022-11-12T17:59:11.177Z,31.58
2022-11-12T18:02:04.163Z,26.30
2022-11-12T18:05:00.167Z,30.90
2022-11-12T18:07:48.559Z,28.15
2022-11-12T18:10:37.050Z,29.63
2022-11-12T18:13:25.697Z,26.70
2022-11-12T18:16:17.171Z,31.35
2022-11-12T18:19:09.802Z,29.55
2022-11-12T18:21:58.288Z,26.48
2022-11-12T18:24:53.404Z,31.38
2022-11-12T18:27:42.943Z,32.78
2022-11-12T18:30:31.548Z,34.33
2022-11-12T18:33:19.781Z,35.85
2022-11-12T18:36:10.568Z,51.45
2022-11-12T18:38:58.621Z,62.90
2022-11-12T18:41:47.020Z,46.53
2022-11-12T18:44:37.240Z,49.70
2022-11-12T18:47:28.184Z,42.70
2022-11-12T18:50:16.721Z,31.88
2022-11-12T18:53:06.399Z,32.05
2022-11-12T18:55:54.639Z,28.55
2022-11-12T18:58:48.613Z,31.98
2022-11-12T19:01:42.728Z,31.17
2022-11-12T19:04:32.219Z,40.60
2022-11-12T19:07:20.643Z,33.25
2022-11-12T19:10:15.302Z,31.70
2022-11-12T19:13:08.042Z,32.60
2022-11-12T19:16:04.718Z,27.85
2022-11-12T19:18:53.409Z,28.98
2022-11-12T19:21:42.210Z,28.55
2022-11-12T19:24:33.465Z,29.38
2022-11-12T19:27:24.057Z,25.20
2022-11-12T19:30:18.452Z,30.27
2022-11-12T19:33:06.845Z,34.83
2022-11-12T19:35:54.950Z,31.80
2022-11-12T19:38:45.221Z,33.45
2022-11-12T19:42:11.679Z,36.83
2022-11-12T19:45:03.201Z,34.55
2022-11-12T19:47:55.673Z,30.83
2022-11-12T19:50:58.597Z,34.95
2022-11-12T19:54:13.990Z,35.40
2022-11-12T19:57:31.309Z,35.13
2022-11-12T20:00:39.155Z,35.78
2022-11-12T20:03:31.802Z,38.35
2022-11-12T20:06:27.915Z,41.35
2022-11-12T20:09:53.284Z,42.20
2022-11-12T20:16:25.256Z,42.67
2022-11-12T20:19:17.754Z,50.05
2022-11-12T20:22:13.606Z,40.53
2022-11-12T20:25:13.017Z,43.90
2022-11-12T20:28:40.467Z,41.13
2022-11-12T20:31:53.119Z,37.85
2022-11-12T20:34:44.807Z,40.60
2022-11-12T20:37:33.979Z,60.72
2022-11-12T20:43:34.523Z,47.25
2022-11-12T20:46:29.833Z,41.22
2022-11-12T20:49:21.620Z,46.72
2022-11-12T20:52:15.350Z,42.95
2022-11-12T20:55:20.365Z,38.55
2022-11-12T20:58:20.245Z,38.05
2022-11-12T21:01:09.437Z,35.17
2022-11-12T21:03:59.647Z,41.42
2022-11-12T21:06:52.607Z,42.38
2022-11-12T21:09:41.026Z,38.88
2022-11-12T21:12:32.672Z,40.45
2022-11-12T21:15:24.255Z,38.72
2022-11-12T21:18:12.244Z,46.30
2022-11-12T21:21:03.413Z,43.42
2022-11-12T21:23:54.123Z,41.87
2022-11-12T21:26:42.193Z,39.38
2022-11-12T21:29:33.709Z,36.28
2022-11-12T21:32:26.254Z,46.67
2022-11-12T21:35:17.601Z,44.25
2022-11-12T21:38:05.380Z,45.13
2022-11-12T21:41:02.454Z,42.17
2022-11-12T21:43:50.917Z,44.70
2022-11-12T21:46:42.102Z,41.80
2022-11-12T21:49:30.396Z,41.28
2022-11-12T21:52:18.544Z,42.50
2022-11-12T21:55:07.795Z,40.42
2022-11-12T22:01:13.439Z,36.50
2022-11-12T22:04:07.324Z,32.72
2022-11-12T22:06:55.446Z,34.13
2022-11-12T22:09:43.579Z,40.65
2022-11-12T22:12:31.893Z,36.50
2022-11-12T22:15:24.529Z,36.10
2022-11-12T22:18:12.885Z,33.63
2022-11-12T22:21:01.679Z,32.72
2022-11-12T22:23:50.534Z,33.88
2022-11-12T22:26:39.019Z,29.33
2022-11-12T22:29:27.519Z,30.23
2022-11-12T22:32:19.853Z,34.15
2022-11-12T22:37:57.989Z,31.38
2022-11-12T22:40:45.701Z,36.40
2022-11-12T22:43:34.359Z,43.78
2022-11-12T22:46:23.726Z,34.22
2022-11-12T22:49:13.231Z,29.13
2022-11-12T22:52:01.391Z,27.38
2022-11-12T22:54:55.321Z,34.70
2022-11-12T22:57:48.269Z,29.02
2022-11-12T23:00:38.636Z,30.92
2022-11-12T23:03:26.569Z,28.13
2022-11-12T23:06:16.246Z,28.58
2022-11-12T23:09:05.309Z,28.02
2022-11-12T23:12:01.012Z,30.85
2022-11-12T23:14:50.147Z,28.50
2022-11-12T23:17:38.402Z,29.13
2022-11-12T23:20:26.026Z,28.70
2022-11-12T23:23:18.381Z,37.42
2022-11-12T23:26:07.148Z,28.00
2022-11-12T23:28:58.195Z,28.50
2022-11-12T23:31:46.762Z,30.48
2022-11-12T23:34:34.856Z,28.33
2022-11-12T23:37:34.879Z,29.45
2022-11-12T23:40:30.779Z,27.88
2022-11-12T23:43:19.399Z,29.65
2022-11-12T23:46:08.093Z,27.92
2022-11-12T23:48:59.220Z,26.52
2022-11-12T23:51:47.388Z,30.65
2022-11-12T23:54:35.310Z,24.88
2022-11-12T23:57:27.036Z,26.38
